createdAt,value
2019-03-11T00:00:38.408Z,0.00
2019-03-11T00:01:38.394Z,0.00
2019-03-11T00:02:38.385Z,0.00
2019-03-11T00:03:38.384Z,0.00
2019-03-11T00:04:38.364Z,0.00
2019-03-11T00:05:38.354Z,0.00
2019-03-11T00:06:38.345Z,0.00
2019-03-11T00:07:38.334Z,0.00
2019-03-11T00:08:38.333Z,0.00
2019-03-11T00:09:38.313Z,0.00
2019-03-11T00:10:38.302Z,0.00
2019-03-11T00:11:38.296Z,0.00
2019-03-11T00:12:38.298Z,0.00
2019-03-11T00:13:38.283Z,0.00
2019-03-11T00:14:38.260Z,0.00
2019-03-11T00:15:38.250Z,0.00
2019-03-11T00:16:38.247Z,0.00
2019-03-11T00:17:38.237Z,0.00
2019-03-11T00:18:38.237Z,0.00
2019-03-11T00:19:38.210Z,0.00
2019-03-11T00:20:38.197Z,0.00
2019-03-11T00:21:38.192Z,0.00
2019-03-11T00:22:38.178Z,0.00
2019-03-11T00:23:38.176Z,0.00
2019-03-11T00:24:38.168Z,0.00
2019-03-11T00:25:38.146Z,0.00
2019-03-11T00:26:38.138Z,0.00
2019-03-11T00:27:38.128Z,0.00
2019-03-11T00:28:38.134Z,0.00
2019-03-11T00:29:38.104Z,0.00
2019-03-11T00:30:38.093Z,0.00
2019-03-11T00:31:38.096Z,0.00
2019-03-11T00:32:38.076Z,0.00
2019-03-11T00:33:38.106Z,0.00
2019-03-11T00:34:38.067Z,0.00
2019-03-11T00:35:38.050Z,0.00
2019-03-11T00:36:38.033Z,0.00
2019-03-11T00:37:38.024Z,0.00
2019-03-11T00:38:38.028Z,0.00
2019-03-11T00:39:38.036Z,0.00
2019-03-11T00:40:37.990Z,0.00
2019-03-11T00:41:37.981Z,0.00
2019-03-11T00:42:37.971Z,0.00
2019-03-11T00:43:37.965Z,0.00
2019-03-11T00:44:37.959Z,0.00
2019-03-11T00:45:37.938Z,0.00
2019-03-11T00:46:37.928Z,0.00
2019-03-11T00:47:37.919Z,0.00
2019-03-11T00:48:37.926Z,0.00
2019-03-11T00:49:37.917Z,0.00
2019-03-11T00:50:37.887Z,0.00
2019-03-11T00:51:37.901Z,0.00
2019-03-11T00:52:37.956Z,0.00
2019-03-11T00:53:37.857Z,0.00
2019-03-11T00:54:37.857Z,0.00
2019-03-11T00:55:37.834Z,0.00
2019-03-11T00:56:37.832Z,0.00
2019-03-11T00:57:37.814Z,0.00
2019-03-11T00:58:37.806Z,0.00
2019-03-11T00:59:37.830Z,0.00
2019-03-11T01:00:37.797Z,0.00
2019-03-11T01:01:37.773Z,0.00
2019-03-11T01:02:37.764Z,0.00
2019-03-11T01:03:37.759Z,0.00
2019-03-11T01:04:37.757Z,0.00
2019-03-11T01:05:37.731Z,0.00
2019-03-11T01:06:37.722Z,0.00
2019-03-11T01:07:37.714Z,0.00
2019-03-11T01:08:37.709Z,0.00
2019-03-11T01:09:37.701Z,0.00
2019-03-11T01:10:37.682Z,0.00
2019-03-11T01:11:37.683Z,0.00
2019-03-11T01:12:37.663Z,0.00
2019-03-11T01:13:37.649Z,0.00
2019-03-11T01:14:37.650Z,0.00
2019-03-11T01:15:37.633Z,0.00
2019-03-11T01:16:37.620Z,0.00
2019-03-11T01:17:37.607Z,0.00
2019-03-11T01:18:37.634Z,0.00
2019-03-11T01:19:37.597Z,0.00
2019-03-11T01:20:37.590Z,0.00
2019-03-11T01:21:37.576Z,0.00
2019-03-11T01:22:37.554Z,0.00
2019-03-11T01:23:37.545Z,0.00
2019-03-11T01:24:37.567Z,0.00
2019-03-11T01:25:37.529Z,0.00
2019-03-11T01:26:37.512Z,0.00
2019-03-11T01:27:37.516Z,0.00
2019-03-11T01:28:37.498Z,0.00
2019-03-11T01:29:37.499Z,0.00
2019-03-11T01:30:37.472Z,0.00
2019-03-11T01:31:37.461Z,0.00
2019-03-11T01:32:37.452Z,0.00
2019-03-11T01:33:37.449Z,0.00
2019-03-11T01:34:38.885Z,0.00
2019-03-11T01:35:37.441Z,0.00
2019-03-11T01:36:37.412Z,0.00
2019-03-11T01:37:37.409Z,0.00
2019-03-11T01:38:37.389Z,0.00
2019-03-11T01:39:37.382Z,0.00
2019-03-11T01:40:37.378Z,0.00
2019-03-11T01:41:37.356Z,0.00
2019-03-11T01:42:37.346Z,0.00
2019-03-11T01:43:37.365Z,0.00
2019-03-11T01:44:37.328Z,0.00
2019-03-11T01:45:37.319Z,0.00
2019-03-11T01:46:37.315Z,0.00
2019-03-11T01:47:37.294Z,0.00
2019-03-11T01:48:37.299Z,0.00
2019-03-11T01:49:37.274Z,0.00
2019-03-11T01:50:37.273Z,0.00
2019-03-11T01:51:37.256Z,0.00
2019-03-11T01:52:37.241Z,0.00
2019-03-11T01:53:37.234Z,0.00
2019-03-11T01:54:37.223Z,0.00
2019-03-11T01:55:37.220Z,0.00
2019-03-11T01:56:37.213Z,0.00
2019-03-11T01:57:37.190Z,0.00
2019-03-11T01:58:37.180Z,0.00
2019-03-11T01:59:37.174Z,0.00
2019-03-11T02:00:37.169Z,0.00
2019-03-11T02:01:37.153Z,0.00
2019-03-11T02:02:37.140Z,0.00
2019-03-11T02:03:37.127Z,0.00
2019-03-11T02:04:37.117Z,0.00
2019-03-11T02:05:37.126Z,0.00
2019-03-11T02:06:37.105Z,0.00
2019-03-11T02:07:37.090Z,0.00
2019-03-11T02:08:37.082Z,0.00
2019-03-11T02:09:37.065Z,0.00
2019-03-11T02:10:37.058Z,0.00
2019-03-11T02:11:37.045Z,0.00
2019-03-11T02:12:37.036Z,0.00
2019-03-11T02:13:37.024Z,0.00
2019-03-11T02:14:37.013Z,0.00
2019-03-11T02:15:37.019Z,0.00
2019-03-11T02:16:37.001Z,0.00
2019-03-11T02:17:36.984Z,0.00
2019-03-11T02:18:36.989Z,0.00
2019-03-11T02:19:36.961Z,0.00
2019-03-11T02:20:36.968Z,0.00
2019-03-11T02:21:36.938Z,0.00
2019-03-11T02:22:36.932Z,0.00
2019-03-11T02:23:36.923Z,0.00
2019-03-11T02:24:36.909Z,0.00
2019-03-11T02:25:36.922Z,0.00
2019-03-11T02:26:36.889Z,0.00
2019-03-11T02:27:36.885Z,0.00
2019-03-11T02:28:36.867Z,0.00
2019-03-11T02:29:36.856Z,0.00
2019-03-11T02:30:36.877Z,0.00
2019-03-11T02:31:36.838Z,0.00
2019-03-11T02:32:36.874Z,0.00
2019-03-11T02:33:36.814Z,0.00
2019-03-11T02:34:36.830Z,0.00
2019-03-11T02:35:36.795Z,0.00
2019-03-11T02:36:36.809Z,0.00
2019-03-11T02:37:36.783Z,0.00
2019-03-11T02:38:36.766Z,0.00
2019-03-11T02:39:36.755Z,0.00
2019-03-11T02:40:36.743Z,0.00
2019-03-11T02:41:36.748Z,0.00
2019-03-11T02:42:36.721Z,0.00
2019-03-11T02:43:36.715Z,0.00
2019-03-11T02:44:36.700Z,0.00
2019-03-11T02:45:36.690Z,0.00
2019-03-11T02:46:36.695Z,0.00
2019-03-11T02:47:36.674Z,0.00
2019-03-11T02:48:36.665Z,0.00
2019-03-11T02:49:36.653Z,0.00
2019-03-11T02:50:36.641Z,0.00
2019-03-11T02:51:36.640Z,0.00
2019-03-11T02:52:36.616Z,0.00
2019-03-11T02:53:36.612Z,0.00
2019-03-11T02:54:36.598Z,0.00
2019-03-11T02:55:36.587Z,0.00
2019-03-11T02:56:36.587Z,0.00
2019-03-11T02:57:36.564Z,0.00
2019-03-11T02:58:36.554Z,0.00
2019-03-11T02:59:36.550Z,0.00
2019-03-11T03:00:36.539Z,0.00
2019-03-11T03:01:36.539Z,0.00
2019-03-11T03:02:36.518Z,0.00
2019-03-11T03:03:36.503Z,0.00
2019-03-11T03:04:36.491Z,0.00
2019-03-11T03:05:36.485Z,0.00
2019-03-11T03:06:36.480Z,0.00
2019-03-11T03:07:36.459Z,0.00
2019-03-11T03:08:36.453Z,0.00
2019-03-11T03:09:36.440Z,0.00
2019-03-11T03:10:36.429Z,0.00
2019-03-11T03:11:36.436Z,0.00
2019-03-11T03:12:36.408Z,0.00
2019-03-11T03:13:36.398Z,0.00
2019-03-11T03:14:36.386Z,0.00
2019-03-11T03:15:36.377Z,0.00
2019-03-11T03:16:36.381Z,0.00
2019-03-11T03:17:36.356Z,0.00
2019-03-11T03:18:36.351Z,0.00
2019-03-11T03:19:36.346Z,0.00
2019-03-11T03:20:36.325Z,0.00
2019-03-11T03:21:36.342Z,0.00
2019-03-11T03:22:36.305Z,0.00
2019-03-11T03:23:36.304Z,0.00
2019-03-11T03:24:36.283Z,0.00
2019-03-11T03:25:36.275Z,0.00
2019-03-11T03:26:36.285Z,0.00
2019-03-11T03:27:36.318Z,0.00
2019-03-11T03:28:36.261Z,0.00
2019-03-11T03:29:36.236Z,0.00
2019-03-11T03:30:36.225Z,0.00
2019-03-11T03:31:36.219Z,0.00
2019-03-11T03:32:36.218Z,0.00
2019-03-11T03:33:36.190Z,0.00
2019-03-11T03:34:36.179Z,0.00
2019-03-11T03:35:36.176Z,0.00
2019-03-11T03:36:36.164Z,0.00
2019-03-11T03:37:36.159Z,0.00
2019-03-11T03:38:36.138Z,0.00
2019-03-11T03:39:36.136Z,0.00
2019-03-11T03:40:36.123Z,0.00
2019-03-11T03:41:36.105Z,0.00
2019-03-11T03:42:36.145Z,0.00
2019-03-11T03:43:36.090Z,0.00
2019-03-11T03:44:36.076Z,0.00
2019-03-11T03:45:36.068Z,0.00
2019-03-11T03:46:36.054Z,0.00
2019-03-11T03:47:36.057Z,0.00
2019-03-11T03:48:36.230Z,0.00
2019-03-11T03:49:36.024Z,0.00
2019-03-11T03:50:36.014Z,0.00
2019-03-11T03:51:36.013Z,0.00
2019-03-11T03:52:36.005Z,0.00
2019-03-11T03:53:35.981Z,0.00
2019-03-11T03:54:35.999Z,0.00
2019-03-11T03:55:35.968Z,0.00
2019-03-11T03:56:35.965Z,0.00
2019-03-11T03:57:35.955Z,0.00
2019-03-11T03:58:35.945Z,0.00
2019-03-11T03:59:35.920Z,0.00
2019-03-11T04:00:35.908Z,0.00
2019-03-11T04:01:35.902Z,0.00
2019-03-11T04:02:35.905Z,0.00
2019-03-11T04:03:35.883Z,0.00
2019-03-11T04:04:35.874Z,0.00
2019-03-11T04:05:35.860Z,0.00
2019-03-11T04:06:35.853Z,0.00
2019-03-11T04:07:35.850Z,0.00
2019-03-11T04:08:35.848Z,0.00
2019-03-11T04:09:35.817Z,0.00
2019-03-11T04:10:35.806Z,0.00
2019-03-11T04:11:35.795Z,0.00
2019-03-11T04:12:35.830Z,0.00
2019-03-11T04:13:35.772Z,0.00
2019-03-11T04:14:35.765Z,0.00
2019-03-11T04:15:35.752Z,0.00
2019-03-11T04:16:35.753Z,0.00
2019-03-11T04:17:35.749Z,0.00
2019-03-11T04:18:35.722Z,0.00
2019-03-11T04:19:35.713Z,0.00
2019-03-11T04:20:35.702Z,0.00
2019-03-11T04:21:35.690Z,0.00
2019-03-11T04:22:35.698Z,0.00
2019-03-11T04:23:35.677Z,0.00
2019-03-11T04:24:35.682Z,0.00
2019-03-11T04:25:35.660Z,0.00
2019-03-11T04:26:35.658Z,0.00
2019-03-11T04:27:35.629Z,0.00
2019-03-11T04:28:35.621Z,0.00
2019-03-11T04:29:35.614Z,0.00
2019-03-11T04:30:35.611Z,0.00
2019-03-11T04:31:35.584Z,0.00
2019-03-11T04:32:35.578Z,0.00
2019-03-11T04:33:35.569Z,0.00
2019-03-11T04:34:36.269Z,0.00
2019-03-11T04:35:35.546Z,0.00
2019-03-11T04:36:35.553Z,0.00
2019-03-11T04:37:35.529Z,0.00
2019-03-11T04:38:35.529Z,0.00
2019-03-11T04:39:35.502Z,0.00
2019-03-11T04:40:35.518Z,0.00
2019-03-11T04:41:35.481Z,0.00
2019-03-11T04:42:35.488Z,0.00
2019-03-11T04:43:35.468Z,0.00
2019-03-11T04:44:35.450Z,0.00
2019-03-11T04:45:35.447Z,0.00
2019-03-11T04:46:35.432Z,0.00
2019-03-11T04:47:35.433Z,0.00
2019-03-11T04:48:35.410Z,0.00
2019-03-11T04:49:35.395Z,0.00
2019-03-11T04:50:35.408Z,0.00
2019-03-11T04:51:35.377Z,0.00
2019-03-11T04:52:35.366Z,0.00
2019-03-11T04:53:35.360Z,0.00
2019-03-11T04:54:35.355Z,0.00
2019-03-11T04:55:35.334Z,0.00
2019-03-11T04:56:35.345Z,0.00
2019-03-11T04:57:35.315Z,0.00
2019-03-11T04:58:35.329Z,0.00
2019-03-11T04:59:35.303Z,0.00
2019-03-11T05:00:35.283Z,0.00
2019-03-11T05:01:35.272Z,0.00
2019-03-11T05:02:35.263Z,0.00
2019-03-11T05:03:35.265Z,0.00
2019-03-11T05:04:35.297Z,0.00
2019-03-11T05:05:35.255Z,0.00
2019-03-11T05:06:35.227Z,0.00
2019-03-11T05:07:35.210Z,0.00
2019-03-11T05:08:35.218Z,0.00
2019-03-11T05:09:35.189Z,0.00
2019-03-11T05:10:35.184Z,0.00
2019-03-11T05:11:35.180Z,0.00
2019-03-11T05:12:35.158Z,0.00
2019-03-11T05:13:35.156Z,0.00
2019-03-11T05:14:35.159Z,0.00
2019-03-11T05:15:35.128Z,0.00
2019-03-11T05:16:35.122Z,0.00
2019-03-11T05:17:35.106Z,0.00
2019-03-11T05:18:35.111Z,0.00
2019-03-11T05:19:35.086Z,0.00
2019-03-11T05:20:35.074Z,0.00
2019-03-11T05:21:35.062Z,0.00
2019-03-11T05:22:35.055Z,0.00
2019-03-11T05:23:35.058Z,0.00
2019-03-11T05:24:35.032Z,0.00
2019-03-11T05:25:35.024Z,0.00
2019-03-11T05:26:35.013Z,0.00
2019-03-11T05:27:35.021Z,0.00
2019-03-11T05:28:35.006Z,0.00
2019-03-11T05:29:35.031Z,0.00
2019-03-11T05:30:34.988Z,0.00
2019-03-11T05:31:34.960Z,0.00
2019-03-11T05:32:34.948Z,0.00
2019-03-11T05:33:34.999Z,0.00
2019-03-11T05:34:34.966Z,0.00
2019-03-11T05:35:34.920Z,0.00
2019-03-11T05:36:34.918Z,0.00
2019-03-11T05:37:34.897Z,0.00
2019-03-11T05:38:34.900Z,0.00
2019-03-11T05:39:34.885Z,0.00
2019-03-11T05:40:34.868Z,0.00
2019-03-11T05:41:34.883Z,0.00
2019-03-11T05:42:34.847Z,0.00
2019-03-11T05:43:34.843Z,0.00
2019-03-11T05:44:34.829Z,0.00
2019-03-11T05:45:34.825Z,0.00
2019-03-11T05:46:34.812Z,0.00
2019-03-11T05:47:34.811Z,0.00
2019-03-11T05:48:34.813Z,0.00
2019-03-11T05:49:34.796Z,0.00
2019-03-11T05:50:34.763Z,0.00
2019-03-11T05:51:34.757Z,0.00
2019-03-11T05:52:34.747Z,0.00
2019-03-11T05:53:34.742Z,0.00
2019-03-11T05:54:34.725Z,5.62
2019-03-11T05:55:34.714Z,5.62
2019-03-11T05:56:34.705Z,5.62
2019-03-11T05:57:34.688Z,5.62
2019-03-11T05:58:34.689Z,5.62
2019-03-11T05:59:34.667Z,5.62
2019-03-11T06:00:34.660Z,5.62
2019-03-11T06:01:34.656Z,5.62
2019-03-11T06:02:36.591Z,5.62
2019-03-11T06:03:34.664Z,11.25
2019-03-11T06:04:34.620Z,11.25
2019-03-11T06:05:34.606Z,11.25
2019-03-11T06:06:34.603Z,11.25
2019-03-11T06:07:34.584Z,11.25
2019-03-11T06:08:34.591Z,16.88
2019-03-11T06:09:34.564Z,16.88
2019-03-11T06:10:34.554Z,16.88
2019-03-11T06:11:34.541Z,22.50
2019-03-11T06:12:34.561Z,28.12
2019-03-11T06:13:36.266Z,33.75
2019-03-11T06:14:34.513Z,33.75
2019-03-11T06:15:34.499Z,39.38
2019-03-11T06:16:34.489Z,39.38
2019-03-11T06:17:34.569Z,39.38
2019-03-11T06:18:34.476Z,33.75
2019-03-11T06:19:34.471Z,33.75
2019-03-11T06:20:34.452Z,33.75
2019-03-11T06:21:34.441Z,28.12
2019-03-11T06:22:34.427Z,28.12
2019-03-11T06:23:34.419Z,28.12
2019-03-11T06:24:34.423Z,28.12
2019-03-11T06:25:34.399Z,28.12
2019-03-11T06:26:34.387Z,28.12
2019-03-11T06:27:34.398Z,28.12
2019-03-11T06:28:34.365Z,33.75
2019-03-11T06:29:34.380Z,33.75
2019-03-11T06:30:34.363Z,39.38
2019-03-11T06:31:34.340Z,39.38
2019-03-11T06:32:34.325Z,45.00
2019-03-11T06:33:34.314Z,45.00
2019-03-11T06:34:34.316Z,45.00
2019-03-11T06:35:34.296Z,45.00
2019-03-11T06:36:34.284Z,39.38
2019-03-11T06:37:34.279Z,45.00
2019-03-11T06:38:34.262Z,50.62
2019-03-11T06:39:34.260Z,56.25
2019-03-11T06:40:34.245Z,50.62
2019-03-11T06:41:34.229Z,56.25
2019-03-11T06:42:34.218Z,61.88
2019-03-11T06:43:34.307Z,61.88
2019-03-11T06:44:34.209Z,61.88
2019-03-11T06:45:34.186Z,61.88
2019-03-11T06:46:34.185Z,56.25
2019-03-11T06:47:34.198Z,56.25
2019-03-11T06:48:34.183Z,56.25
2019-03-11T06:49:34.155Z,61.88
2019-03-11T06:50:34.143Z,56.25
2019-03-11T06:51:34.126Z,56.25
2019-03-11T06:52:34.115Z,50.62
2019-03-11T06:53:34.131Z,50.62
2019-03-11T06:54:34.120Z,50.62
2019-03-11T06:55:34.095Z,50.62
2019-03-11T06:56:34.142Z,50.62
2019-03-11T06:57:34.060Z,50.62
2019-03-11T06:58:34.053Z,50.62
2019-03-11T06:59:34.064Z,50.62
2019-03-11T07:00:34.031Z,50.62
2019-03-11T07:01:34.021Z,45.00
2019-03-11T07:02:34.016Z,45.00
2019-03-11T07:03:34.003Z,45.00
2019-03-11T07:04:34.005Z,50.62
2019-03-11T07:05:33.992Z,56.25
2019-03-11T07:06:33.969Z,61.88
2019-03-11T07:07:33.960Z,61.88
2019-03-11T07:08:33.954Z,61.88
2019-03-11T07:09:33.971Z,67.50
2019-03-11T07:10:33.948Z,73.12
2019-03-11T07:11:33.929Z,67.50
2019-03-11T07:12:33.907Z,67.50
2019-03-11T07:13:33.894Z,73.12
2019-03-11T07:14:33.888Z,78.75
2019-03-11T07:15:33.895Z,78.75
2019-03-11T07:16:33.871Z,73.12
2019-03-11T07:17:33.855Z,67.50
2019-03-11T07:18:33.844Z,67.50
2019-03-11T07:19:33.840Z,67.50
2019-03-11T07:20:33.828Z,67.50
2019-03-11T07:21:33.813Z,67.50
2019-03-11T07:22:33.814Z,67.50
2019-03-11T07:23:33.791Z,67.50
2019-03-11T07:24:33.793Z,50.62
2019-03-11T07:25:33.776Z,39.38
2019-03-11T07:26:33.762Z,33.75
2019-03-11T07:27:33.768Z,45.00
2019-03-11T07:28:33.742Z,50.62
2019-03-11T07:29:33.729Z,45.00
2019-03-11T07:30:33.722Z,50.62
2019-03-11T07:31:33.708Z,56.25
2019-03-11T07:32:33.702Z,45.00
2019-03-11T07:33:33.693Z,45.00
2019-03-11T07:34:33.678Z,56.25
2019-03-11T07:35:33.675Z,50.62
2019-03-11T07:36:33.656Z,45.00
2019-03-11T07:37:33.648Z,39.38
2019-03-11T07:38:33.654Z,39.38
2019-03-11T07:39:33.633Z,28.12
2019-03-11T07:40:33.620Z,33.75
2019-03-11T07:41:33.606Z,28.12
2019-03-11T07:42:33.598Z,22.50
2019-03-11T07:43:33.583Z,22.50
2019-03-11T07:44:33.596Z,33.75
2019-03-11T07:45:33.584Z,39.38
2019-03-11T07:46:33.552Z,50.62
2019-03-11T07:47:33.543Z,45.00
2019-03-11T07:48:33.534Z,45.00
2019-03-11T07:49:33.521Z,50.62
2019-03-11T07:50:33.529Z,39.38
2019-03-11T07:51:33.501Z,33.75
2019-03-11T07:52:33.492Z,39.38
2019-03-11T07:53:33.478Z,56.25
2019-03-11T07:54:36.031Z,56.25
2019-03-11T07:55:33.520Z,56.25
2019-03-11T07:56:33.454Z,39.38
2019-03-11T07:57:33.441Z,28.12
2019-03-11T07:58:33.427Z,28.12
2019-03-11T07:59:33.416Z,22.50
2019-03-11T08:00:33.431Z,28.12
2019-03-11T08:01:33.402Z,33.75
2019-03-11T08:02:33.386Z,33.75
2019-03-11T08:03:33.400Z,33.75
2019-03-11T08:04:33.368Z,28.12
2019-03-11T08:05:33.360Z,22.50
2019-03-11T08:06:33.357Z,22.50
2019-03-11T08:07:33.446Z,22.50
2019-03-11T08:08:33.456Z,22.50
2019-03-11T08:09:37.793Z,28.12
2019-03-11T08:10:33.309Z,28.12
2019-03-11T08:11:33.294Z,22.50
2019-03-11T08:12:33.390Z,22.50
2019-03-11T08:13:33.270Z,16.88
2019-03-11T08:14:33.261Z,11.25
2019-03-11T08:15:33.257Z,11.25
2019-03-11T08:16:33.253Z,11.25
2019-03-11T08:17:33.230Z,16.88
2019-03-11T08:18:35.308Z,22.50
2019-03-11T08:19:33.210Z,22.50
2019-03-11T08:20:33.210Z,39.38
2019-03-11T08:21:33.188Z,73.12
2019-03-11T08:22:33.201Z,118.12
2019-03-11T08:23:35.631Z,106.88
2019-03-11T08:24:33.192Z,101.25
2019-03-11T08:25:33.168Z,95.62
2019-03-11T08:26:33.139Z,95.62
2019-03-11T08:27:33.132Z,90.00
2019-03-11T08:28:33.117Z,90.00
2019-03-11T08:29:33.136Z,90.00
2019-03-11T08:30:33.101Z,90.00
2019-03-11T08:31:33.087Z,90.00
2019-03-11T08:32:33.082Z,95.62
2019-03-11T08:33:33.063Z,95.62
2019-03-11T08:34:33.055Z,101.25
2019-03-11T08:35:33.052Z,106.88
2019-03-11T08:36:33.039Z,112.50
2019-03-11T08:37:33.023Z,123.75
2019-03-11T08:38:33.011Z,135.00
2019-03-11T08:39:33.002Z,140.62
2019-03-11T08:40:33.005Z,151.88
2019-03-11T08:41:33.023Z,174.38
2019-03-11T08:42:32.972Z,202.50
2019-03-11T08:43:32.965Z,241.88
2019-03-11T08:44:32.952Z,264.38
2019-03-11T08:45:32.944Z,286.88
2019-03-11T08:46:32.928Z,286.88
2019-03-11T08:47:32.925Z,281.25
2019-03-11T08:48:32.914Z,275.62
2019-03-11T08:49:32.896Z,258.75
2019-03-11T08:50:32.889Z,241.88
2019-03-11T08:51:32.882Z,225.00
2019-03-11T08:52:32.869Z,225.00
2019-03-11T08:53:32.873Z,230.62
2019-03-11T08:54:32.878Z,230.62
2019-03-11T08:55:32.847Z,236.25
2019-03-11T08:56:32.838Z,253.12
2019-03-11T08:57:32.813Z,258.75
2019-03-11T08:58:32.807Z,270.00
2019-03-11T08:59:32.794Z,281.25
2019-03-11T09:00:32.789Z,275.62
2019-03-11T09:01:32.775Z,286.88
2019-03-11T09:02:32.761Z,286.88
2019-03-11T09:03:32.751Z,292.50
2019-03-11T09:04:32.743Z,275.62
2019-03-11T09:05:32.773Z,264.38
2019-03-11T09:06:32.724Z,253.12
2019-03-11T09:07:32.713Z,270.00
2019-03-11T09:08:32.700Z,286.88
2019-03-11T09:09:32.687Z,270.00
2019-03-11T09:10:32.688Z,236.25
2019-03-11T09:11:32.682Z,236.25
2019-03-11T09:12:32.656Z,270.00
2019-03-11T09:13:32.651Z,298.12
2019-03-11T09:14:32.639Z,309.38
2019-03-11T09:15:32.743Z,298.12
2019-03-11T09:16:32.618Z,298.12
2019-03-11T09:17:32.606Z,281.25
2019-03-11T09:18:32.595Z,270.00
2019-03-11T09:19:32.589Z,270.00
2019-03-11T09:20:32.599Z,264.38
2019-03-11T09:21:32.569Z,264.38
2019-03-11T09:22:32.553Z,258.75
2019-03-11T09:23:32.543Z,253.12
2019-03-11T09:24:32.531Z,253.12
2019-03-11T09:25:32.527Z,270.00
2019-03-11T09:26:32.527Z,281.25
2019-03-11T09:27:32.502Z,281.25
2019-03-11T09:28:32.580Z,292.50
2019-03-11T09:29:32.480Z,309.38
2019-03-11T09:30:32.479Z,309.38
2019-03-11T09:31:32.473Z,315.00
2019-03-11T09:32:32.448Z,320.62
2019-03-11T09:33:32.441Z,315.00
2019-03-11T09:34:32.436Z,326.25
2019-03-11T09:35:32.429Z,331.88
2019-03-11T09:36:32.407Z,331.88
2019-03-11T09:37:32.400Z,343.12
2019-03-11T09:38:32.419Z,343.12
2019-03-11T09:39:32.396Z,354.38
2019-03-11T09:40:32.377Z,354.38
2019-03-11T09:41:32.366Z,354.38
2019-03-11T09:42:32.374Z,348.75
2019-03-11T09:43:32.338Z,343.12
2019-03-11T09:44:32.326Z,337.50
2019-03-11T09:45:32.327Z,337.50
2019-03-11T09:46:32.304Z,343.12
2019-03-11T09:47:32.298Z,343.12
2019-03-11T09:48:32.287Z,343.12
2019-03-11T09:49:32.272Z,343.12
2019-03-11T09:50:32.288Z,343.12
2019-03-11T09:51:32.251Z,343.12
2019-03-11T09:52:32.243Z,343.12
2019-03-11T09:53:32.231Z,348.75
2019-03-11T09:54:32.240Z,348.75
2019-03-11T09:55:32.226Z,343.12
2019-03-11T09:56:42.690Z,337.50
2019-03-11T09:57:33.190Z,348.75
2019-03-11T09:58:32.179Z,365.62
2019-03-11T09:59:32.186Z,365.62
2019-03-11T10:00:32.174Z,371.25
2019-03-11T10:01:32.149Z,371.25
2019-03-11T10:02:32.140Z,388.12
2019-03-11T10:03:32.126Z,393.75
2019-03-11T10:04:32.118Z,382.50
2019-03-11T10:05:32.107Z,365.62
2019-03-11T10:06:32.110Z,354.38
2019-03-11T10:07:32.086Z,360.00
2019-03-11T10:08:32.078Z,376.88
2019-03-11T10:09:32.064Z,405.00
2019-03-11T10:10:32.053Z,410.62
2019-03-11T10:11:32.059Z,421.88
2019-03-11T10:12:32.040Z,433.12
2019-03-11T10:13:32.020Z,433.12
2019-03-11T10:14:32.009Z,433.12
2019-03-11T10:15:31.999Z,433.12
2019-03-11T10:16:32.023Z,427.50
2019-03-11T10:17:31.991Z,433.12
2019-03-11T10:18:31.967Z,433.12
2019-03-11T10:19:31.974Z,421.88
2019-03-11T10:20:31.949Z,410.62
2019-03-11T10:21:31.946Z,399.38
2019-03-11T10:22:31.931Z,382.50
2019-03-11T10:23:32.564Z,348.75
2019-03-11T10:24:31.904Z,326.25
2019-03-11T10:25:31.895Z,315.00
2019-03-11T10:26:31.895Z,331.88
2019-03-11T10:27:31.869Z,354.38
2019-03-11T10:28:31.862Z,399.38
2019-03-11T10:29:31.849Z,438.75
2019-03-11T10:30:31.839Z,455.62
2019-03-11T10:31:31.837Z,450.00
2019-03-11T10:32:31.826Z,427.50
2019-03-11T10:33:31.807Z,399.38
2019-03-11T10:34:31.795Z,365.62
2019-03-11T10:35:32.932Z,331.88
2019-03-11T10:36:31.789Z,303.75
2019-03-11T10:37:31.762Z,303.75
2019-03-11T10:38:31.751Z,337.50
2019-03-11T10:39:31.748Z,354.38
2019-03-11T10:40:31.735Z,371.25
2019-03-11T10:41:31.732Z,405.00
2019-03-11T10:42:31.711Z,416.25
2019-03-11T10:43:31.702Z,421.88
2019-03-11T10:44:31.698Z,427.50
2019-03-11T10:45:32.413Z,427.50
2019-03-11T10:46:31.680Z,416.25
2019-03-11T10:47:31.656Z,410.62
2019-03-11T10:48:37.197Z,416.25
2019-03-11T10:49:32.650Z,410.62
2019-03-11T10:50:31.631Z,410.62
2019-03-11T10:51:31.638Z,416.25
2019-03-11T10:52:31.606Z,433.12
2019-03-11T10:53:31.593Z,410.62
2019-03-11T10:54:31.581Z,405.00
2019-03-11T10:55:31.575Z,393.75
2019-03-11T10:56:31.571Z,444.38
2019-03-11T10:57:31.548Z,483.75
2019-03-11T10:58:31.608Z,489.38
2019-03-11T10:59:31.527Z,495.00
2019-03-11T11:00:31.524Z,528.75
2019-03-11T11:01:31.529Z,556.88
2019-03-11T11:02:31.496Z,511.88
2019-03-11T11:03:31.489Z,495.00
2019-03-11T11:04:31.476Z,489.38
2019-03-11T11:05:31.471Z,523.12
2019-03-11T11:06:31.477Z,545.62
2019-03-11T11:07:31.443Z,478.12
2019-03-11T11:08:31.433Z,405.00
2019-03-11T11:09:31.421Z,343.12
2019-03-11T11:10:31.427Z,292.50
2019-03-11T11:11:31.411Z,281.25
2019-03-11T11:12:31.390Z,281.25
2019-03-11T11:13:31.396Z,241.88
2019-03-11T11:14:31.368Z,180.00
2019-03-11T11:15:31.363Z,185.62
2019-03-11T11:16:31.361Z,163.12
2019-03-11T11:17:31.336Z,157.50
2019-03-11T11:18:31.327Z,185.62
2019-03-11T11:19:31.321Z,247.50
2019-03-11T11:20:31.382Z,309.38
2019-03-11T11:21:31.308Z,320.62
2019-03-11T11:22:31.288Z,382.50
2019-03-11T11:23:31.274Z,528.75
2019-03-11T11:24:31.262Z,556.88
2019-03-11T11:25:31.255Z,506.25
2019-03-11T11:26:31.251Z,545.62
2019-03-11T11:27:31.253Z,562.50
2019-03-11T11:28:31.219Z,540.00
2019-03-11T11:29:31.210Z,534.38
2019-03-11T11:30:31.199Z,517.50
2019-03-11T11:31:31.201Z,511.88
2019-03-11T11:32:31.176Z,517.50
2019-03-11T11:33:31.172Z,500.62
2019-03-11T11:34:31.155Z,478.12
2019-03-11T11:35:31.147Z,466.88
2019-03-11T11:36:31.144Z,461.25
2019-03-11T11:37:31.132Z,478.12
2019-03-11T11:38:31.113Z,466.88
2019-03-11T11:39:31.107Z,495.00
2019-03-11T11:40:31.106Z,500.62
2019-03-11T11:41:31.123Z,545.62
2019-03-11T11:42:31.071Z,517.50
2019-03-11T11:43:31.062Z,517.50
2019-03-11T11:44:31.051Z,528.75
2019-03-11T11:45:31.043Z,517.50
2019-03-11T11:46:31.040Z,523.12
2019-03-11T11:47:31.018Z,511.88
2019-03-11T11:48:31.008Z,506.25
2019-03-11T11:49:30.998Z,500.62
2019-03-11T11:50:30.995Z,500.62
2019-03-11T11:51:30.988Z,478.12
2019-03-11T11:52:30.965Z,523.12
2019-03-11T11:53:30.955Z,562.50
2019-03-11T11:54:30.944Z,579.38
2019-03-11T11:55:30.934Z,652.50
2019-03-11T11:56:30.933Z,652.50
2019-03-11T11:57:30.913Z,590.62
2019-03-11T11:58:30.902Z,607.50
2019-03-11T11:59:30.896Z,675.00
2019-03-11T12:00:30.882Z,624.38
2019-03-11T12:01:30.882Z,478.12
2019-03-11T12:02:30.861Z,731.25
2019-03-11T12:03:30.850Z,821.25
2019-03-11T12:04:30.841Z,821.25
2019-03-11T12:05:30.834Z,911.25
2019-03-11T12:06:30.826Z,939.38
2019-03-11T12:07:30.882Z,978.75
2019-03-11T12:08:30.808Z,1057.50
2019-03-11T12:09:30.792Z,990.00
2019-03-11T12:10:30.777Z,1170.00
2019-03-11T12:11:30.792Z,1406.25
2019-03-11T12:12:30.753Z,500.62
2019-03-11T12:13:30.743Z,225.00
2019-03-11T12:14:30.739Z,208.12
2019-03-11T12:15:30.721Z,275.62
2019-03-11T12:16:30.712Z,393.75
2019-03-11T12:17:30.711Z,3166.88
2019-03-11T12:18:30.690Z,382.50
2019-03-11T12:19:30.688Z,331.88
2019-03-11T12:20:30.670Z,3195.00
2019-03-11T12:21:30.658Z,3476.25
2019-03-11T12:22:30.664Z,3751.88
2019-03-11T12:23:30.635Z,641.25
2019-03-11T12:24:30.627Z,450.00
2019-03-11T12:25:30.625Z,3903.75
2019-03-11T12:26:30.605Z,2874.38
2019-03-11T12:27:30.605Z,635.62
2019-03-11T12:28:30.590Z,2790.00
2019-03-11T12:29:30.575Z,3290.62
2019-03-11T12:30:30.566Z,680.62
2019-03-11T12:31:30.554Z,765.00
2019-03-11T12:32:30.553Z,2925.00
2019-03-11T12:33:30.533Z,4263.75
2019-03-11T12:34:30.520Z,4567.50
2019-03-11T12:35:30.510Z,4505.62
2019-03-11T12:36:30.499Z,4595.62
2019-03-11T12:37:30.498Z,725.62
2019-03-11T12:38:30.495Z,4702.50
2019-03-11T12:39:30.467Z,838.12
2019-03-11T12:40:30.461Z,4567.50
2019-03-11T12:41:30.446Z,883.12
2019-03-11T12:42:30.446Z,4635.00
2019-03-11T12:43:30.426Z,4640.62
2019-03-11T12:44:30.416Z,4910.62
2019-03-11T12:45:30.403Z,1068.75
2019-03-11T12:46:30.393Z,911.25
2019-03-11T12:47:30.399Z,4561.88
2019-03-11T12:48:30.371Z,3285.00
2019-03-11T12:49:30.361Z,1575.00
2019-03-11T12:50:30.351Z,1344.38
2019-03-11T12:51:30.348Z,1456.88
2019-03-11T12:52:30.333Z,4269.38
2019-03-11T12:53:30.326Z,3622.50
2019-03-11T12:54:30.309Z,3251.25